Weather at Denver International Airport

Public forecast

Using degrees Fahrenheit for public forecast. Weather courtesy of forecast.io.

Current aviation weather report (METAR) for Denver International Airport

Retrieved 2021/07/28 21:53 UTC (12 minutes ago):

KDEN 282153Z 09012G20KT 10SM FEW100 FEW220 37/03 A3012 RMK AO2 PK WND 02028/2125 SLP101 T03670028

Aviation forecast (TAF) for Denver International Airport

Retrieved 2021/07/28 18:48 UTC (3 hours ago):

TAF KDEN 281745Z 2818/2924 33006KT P6SM FEW080 FEW220 FM282000 03010KT P6SM FEW080 FEW220 FM290100 08012KT P6SM FEW080 FEW220 FM290700 18008KT P6SM FEW220 FM291300 29010KT P6SM FEW220 FM291600 35008KT P6SM FEW220 FM291900 08009KT P6SM FEW080 FEW220